sensor_id;sensor_type;location;lat;lon;timestamp;P1;durP1;ratioP1;P2;durP2;ratioP2
60026;SDS011;45891;53.006;6.512;2023-07-16T00:00:34;14.15;;;3.08;;
60026;SDS011;45891;53.006;6.512;2023-07-16T00:03:00;13.13;;;3.13;;
60026;SDS011;45891;53.006;6.512;2023-07-16T00:05:27;14.65;;;2.72;;
60026;SDS011;45891;53.006;6.512;2023-07-16T00:07:53;10.93;;;2.38;;
60026;SDS011;45891;53.006;6.512;2023-07-16T00:10:19;15.82;;;2.95;;
60026;SDS011;45891;53.006;6.512;2023-07-16T00:12:45;10.50;;;2.47;;
60026;SDS011;45891;53.006;6.512;2023-07-16T00:15:11;14.10;;;2.70;;
60026;SDS011;45891;53.006;6.512;2023-07-16T00:17:37;12.30;;;2.75;;
60026;SDS011;45891;53.006;6.512;2023-07-16T00:20:03;13.32;;;3.00;;
60026;SDS011;45891;53.006;6.512;2023-07-16T00:22:31;14.02;;;2.60;;
60026;SDS011;45891;53.006;6.512;2023-07-16T00:24:57;12.88;;;2.67;;
60026;SDS011;45891;53.006;6.512;2023-07-16T00:27:23;13.65;;;2.67;;
60026;SDS011;45891;53.006;6.512;2023-07-16T00:29:49;14.57;;;2.70;;
60026;SDS011;45891;53.006;6.512;2023-07-16T00:32:16;12.77;;;2.75;;
60026;SDS011;45891;53.006;6.512;2023-07-16T00:34:42;13.20;;;2.70;;
60026;SDS011;45891;53.006;6.512;2023-07-16T00:37:09;10.93;;;2.60;;
60026;SDS011;45891;53.006;6.512;2023-07-16T00:39:35;13.13;;;2.80;;
60026;SDS011;45891;53.006;6.512;2023-07-16T00:42:01;11.40;;;2.55;;
60026;SDS011;45891;53.006;6.512;2023-07-16T00:44:27;12.45;;;2.83;;
60026;SDS011;45891;53.006;6.512;2023-07-16T00:46:54;13.87;;;3.00;;
60026;SDS011;45891;53.006;6.512;2023-07-16T00:49:20;14.10;;;2.85;;
60026;SDS011;45891;53.006;6.512;2023-07-16T00:51:46;13.10;;;2.80;;
60026;SDS011;45891;53.006;6.512;2023-07-16T00:54:12;11.18;;;2.40;;
60026;SDS011;45891;53.006;6.512;2023-07-16T00:56:39;13.88;;;2.90;;
60026;SDS011;45891;53.006;6.512;2023-07-16T00:59:05;14.48;;;2.70;;
60026;SDS011;45891;53.006;6.512;2023-07-16T01:01:31;14.35;;;2.85;;
60026;SDS011;45891;53.006;6.512;2023-07-16T01:03:57;11.93;;;3.08;;
60026;SDS011;45891;53.006;6.512;2023-07-16T01:06:43;13.20;;;3.00;;
60026;SDS011;45891;53.006;6.512;2023-07-16T01:09:17;13.93;;;3.05;;
60026;SDS011;45891;53.006;6.512;2023-07-16T01:11:44;14.70;;;2.88;;
60026;SDS011;45891;53.006;6.512;2023-07-16T01:14:16;13.95;;;3.05;;
60026;SDS011;45891;53.006;6.512;2023-07-16T01:16:43;13.10;;;2.97;;
60026;SDS011;45891;53.006;6.512;2023-07-16T01:19:10;14.90;;;2.83;;
60026;SDS011;45891;53.006;6.512;2023-07-16T01:21:48;11.45;;;2.50;;
60026;SDS011;45891;53.006;6.512;2023-07-16T01:29:37;12.95;;;2.70;;
60026;SDS011;45891;53.006;6.512;2023-07-16T01:32:12;14.40;;;2.58;;
60026;SDS011;45891;53.006;6.512;2023-07-16T01:34:39;14.35;;;3.05;;
60026;SDS011;45891;53.006;6.512;2023-07-16T01:37:06;12.23;;;3.05;;
60026;SDS011;45891;53.006;6.512;2023-07-16T01:39:33;11.90;;;2.70;;
60026;SDS011;45891;53.006;6.512;2023-07-16T01:41:59;12.02;;;2.65;;
60026;SDS011;45891;53.006;6.512;2023-07-16T01:44:25;12.00;;;2.53;;
60026;SDS011;45891;53.006;6.512;2023-07-16T01:47:13;14.73;;;2.92;;
60026;SDS011;45891;53.006;6.512;2023-07-16T01:49:56;16.27;;;2.83;;
60026;SDS011;45891;53.006;6.512;2023-07-16T01:52:23;12.52;;;2.88;;
60026;SDS011;45891;53.006;6.512;2023-07-16T01:54:49;11.95;;;2.80;;
60026;SDS011;45891;53.006;6.512;2023-07-16T01:57:15;12.75;;;3.00;;
60026;SDS011;45891;53.006;6.512;2023-07-16T01:59:41;11.60;;;2.50;;
60026;SDS011;45891;53.006;6.512;2023-07-16T02:02:07;13.10;;;2.83;;
60026;SDS011;45891;53.006;6.512;2023-07-16T02:04:33;11.75;;;2.97;;
60026;SDS011;45891;53.006;6.512;2023-07-16T02:06:59;12.60;;;3.47;;
60026;SDS011;45891;53.006;6.512;2023-07-16T02:09:27;15.73;;;3.30;;
60026;SDS011;45891;53.006;6.512;2023-07-16T02:11:53;11.80;;;3.07;;
60026;SDS011;45891;53.006;6.512;2023-07-16T02:14:19;12.07;;;3.25;;
60026;SDS011;45891;53.006;6.512;2023-07-16T02:16:45;12.20;;;2.97;;
60026;SDS011;45891;53.006;6.512;2023-07-16T02:19:11;14.63;;;3.45;;
60026;SDS011;45891;53.006;6.512;2023-07-16T02:21:37;14.52;;;3.20;;
60026;SDS011;45891;53.006;6.512;2023-07-16T02:24:03;12.88;;;3.10;;
60026;SDS011;45891;53.006;6.512;2023-07-16T02:26:30;12.63;;;3.50;;
60026;SDS011;45891;53.006;6.512;2023-07-16T02:28:56;17.50;;;3.83;;
60026;SDS011;45891;53.006;6.512;2023-07-16T02:31:23;12.07;;;3.45;;
60026;SDS011;45891;53.006;6.512;2023-07-16T02:33:49;13.95;;;3.78;;
60026;SDS011;45891;53.006;6.512;2023-07-16T02:36:15;15.55;;;3.63;;
60026;SDS011;45891;53.006;6.512;2023-07-16T02:38:41;11.27;;;3.58;;
60026;SDS011;45891;53.006;6.512;2023-07-16T02:41:07;15.68;;;3.50;;
60026;SDS011;45891;53.006;6.512;2023-07-16T02:43:33;13.30;;;4.07;;
60026;SDS011;45891;53.006;6.512;2023-07-16T02:46:00;16.35;;;3.70;;
60026;SDS011;45891;53.006;6.512;2023-07-16T02:48:26;14.45;;;3.40;;
60026;SDS011;45891;53.006;6.512;2023-07-16T02:50:52;11.55;;;3.72;;
60026;SDS011;45891;53.006;6.512;2023-07-16T02:53:18;12.88;;;3.60;;
60026;SDS011;45891;53.006;6.512;2023-07-16T02:55:45;14.05;;;3.80;;
60026;SDS011;45891;53.006;6.512;2023-07-16T02:58:12;14.10;;;3.55;;
60026;SDS011;45891;53.006;6.512;2023-07-16T03:00:38;12.13;;;3.65;;
60026;SDS011;45891;53.006;6.512;2023-07-16T03:03:04;11.00;;;3.47;;
60026;SDS011;45891;53.006;6.512;2023-07-16T03:05:30;13.95;;;4.28;;
60026;SDS011;45891;53.006;6.512;2023-07-16T03:07:56;13.55;;;3.63;;
60026;SDS011;45891;53.006;6.512;2023-07-16T03:10:22;13.65;;;4.03;;
60026;SDS011;45891;53.006;6.512;2023-07-16T03:12:48;10.77;;;3.33;;
60026;SDS011;45891;53.006;6.512;2023-07-16T03:15:15;13.35;;;3.42;;
60026;SDS011;45891;53.006;6.512;2023-07-16T03:17:41;13.68;;;3.88;;
60026;SDS011;45891;53.006;6.512;2023-07-16T03:20:07;13.77;;;3.72;;
60026;SDS011;45891;53.006;6.512;2023-07-16T03:22:34;13.77;;;3.45;;
60026;SDS011;45891;53.006;6.512;2023-07-16T03:25:00;13.70;;;4.07;;
60026;SDS011;45891;53.006;6.512;2023-07-16T03:27:26;12.38;;;3.60;;
60026;SDS011;45891;53.006;6.512;2023-07-16T03:29:52;14.63;;;3.50;;
60026;SDS011;45891;53.006;6.512;2023-07-16T03:32:18;13.73;;;3.78;;
60026;SDS011;45891;53.006;6.512;2023-07-16T03:34:44;13.52;;;3.85;;
60026;SDS011;45891;53.006;6.512;2023-07-16T03:37:10;14.43;;;3.60;;
60026;SDS011;45891;53.006;6.512;2023-07-16T03:39:36;13.30;;;4.10;;
60026;SDS011;45891;53.006;6.512;2023-07-16T03:42:02;13.73;;;3.78;;
60026;SDS011;45891;53.006;6.512;2023-07-16T03:44:29;14.50;;;3.90;;
60026;SDS011;45891;53.006;6.512;2023-07-16T03:46:55;15.80;;;3.97;;
60026;SDS011;45891;53.006;6.512;2023-07-16T03:49:21;14.02;;;4.10;;
60026;SDS011;45891;53.006;6.512;2023-07-16T03:51:47;15.45;;;4.13;;
60026;SDS011;45891;53.006;6.512;2023-07-16T03:54:13;13.43;;;4.07;;
60026;SDS011;45891;53.006;6.512;2023-07-16T03:56:39;14.32;;;3.67;;
60026;SDS011;45891;53.006;6.512;2023-07-16T03:59:06;15.07;;;4.03;;
60026;SDS011;45891;53.006;6.512;2023-07-16T04:01:32;15.63;;;4.15;;
60026;SDS011;45891;53.006;6.512;2023-07-16T04:03:58;14.10;;;4.43;;
60026;SDS011;45891;53.006;6.512;2023-07-16T04:06:24;15.90;;;3.80;;
60026;SDS011;45891;53.006;6.512;2023-07-16T04:08:50;16.90;;;5.00;;
60026;SDS011;45891;53.006;6.512;2023-07-16T04:11:16;14.57;;;4.30;;
60026;SDS011;45891;53.006;6.512;2023-07-16T04:13:42;14.80;;;4.50;;
60026;SDS011;45891;53.006;6.512;2023-07-16T04:16:08;17.35;;;4.68;;
60026;SDS011;45891;53.006;6.512;2023-07-16T04:18:35;14.82;;;5.07;;
60026;SDS011;45891;53.006;6.512;2023-07-16T04:21:01;12.32;;;4.40;;
60026;SDS011;45891;53.006;6.512;2023-07-16T04:23:27;16.52;;;4.90;;
60026;SDS011;45891;53.006;6.512;2023-07-16T04:25:53;13.48;;;4.40;;
60026;SDS011;45891;53.006;6.512;2023-07-16T04:28:20;14.38;;;4.45;;
60026;SDS011;45891;53.006;6.512;2023-07-16T04:30:46;14.20;;;4.70;;
60026;SDS011;45891;53.006;6.512;2023-07-16T04:33:13;15.77;;;4.63;;
60026;SDS011;45891;53.006;6.512;2023-07-16T04:35:39;17.67;;;4.40;;
60026;SDS011;45891;53.006;6.512;2023-07-16T04:38:05;15.98;;;4.32;;
60026;SDS011;45891;53.006;6.512;2023-07-16T04:40:33;17.73;;;4.95;;
60026;SDS011;45891;53.006;6.512;2023-07-16T04:42:59;15.40;;;4.80;;
60026;SDS011;45891;53.006;6.512;2023-07-16T04:45:25;16.63;;;4.50;;
60026;SDS011;45891;53.006;6.512;2023-07-16T04:47:51;16.27;;;4.30;;
60026;SDS011;45891;53.006;6.512;2023-07-16T04:50:17;15.55;;;4.60;;
60026;SDS011;45891;53.006;6.512;2023-07-16T04:52:44;14.18;;;4.20;;
60026;SDS011;45891;53.006;6.512;2023-07-16T04:55:10;16.75;;;4.65;;
60026;SDS011;45891;53.006;6.512;2023-07-16T04:57:37;14.13;;;4.35;;
60026;SDS011;45891;53.006;6.512;2023-07-16T05:00:03;14.50;;;4.63;;
60026;SDS011;45891;53.006;6.512;2023-07-16T05:02:32;13.98;;;4.55;;
60026;SDS011;45891;53.006;6.512;2023-07-16T05:04:58;17.35;;;4.53;;
60026;SDS011;45891;53.006;6.512;2023-07-16T05:07:24;16.88;;;4.35;;
60026;SDS011;45891;53.006;6.512;2023-07-16T05:09:50;11.80;;;3.90;;
60026;SDS011;45891;53.006;6.512;2023-07-16T05:12:16;15.13;;;4.68;;
60026;SDS011;45891;53.006;6.512;2023-07-16T05:14:43;14.52;;;3.97;;
60026;SDS011;45891;53.006;6.512;2023-07-16T05:17:11;14.45;;;4.45;;
60026;SDS011;45891;53.006;6.512;2023-07-16T05:19:38;14.35;;;4.10;;
60026;SDS011;45891;53.006;6.512;2023-07-16T05:22:04;15.02;;;4.22;;
60026;SDS011;45891;53.006;6.512;2023-07-16T05:24:31;14.15;;;3.65;;
60026;SDS011;45891;53.006;6.512;2023-07-16T05:26:57;11.48;;;3.80;;
60026;SDS011;45891;53.006;6.512;2023-07-16T05:29:23;14.23;;;3.95;;
60026;SDS011;45891;53.006;6.512;2023-07-16T05:31:50;11.70;;;3.53;;
60026;SDS011;45891;53.006;6.512;2023-07-16T05:34:16;14.90;;;3.60;;
60026;SDS011;45891;53.006;6.512;2023-07-16T05:36:42;15.27;;;4.10;;
60026;SDS011;45891;53.006;6.512;2023-07-16T05:39:10;18.67;;;4.25;;
60026;SDS011;45891;53.006;6.512;2023-07-16T05:41:40;14.90;;;4.05;;
60026;SDS011;45891;53.006;6.512;2023-07-16T05:44:07;14.45;;;3.75;;
60026;SDS011;45891;53.006;6.512;2023-07-16T05:46:34;18.98;;;3.70;;
60026;SDS011;45891;53.006;6.512;2023-07-16T05:49:00;14.10;;;3.60;;
60026;SDS011;45891;53.006;6.512;2023-07-16T05:51:26;14.88;;;4.15;;
60026;SDS011;45891;53.006;6.512;2023-07-16T05:53:52;14.25;;;3.97;;
60026;SDS011;45891;53.006;6.512;2023-07-16T05:56:18;14.13;;;3.80;;
60026;SDS011;45891;53.006;6.512;2023-07-16T05:58:44;16.83;;;3.90;;
60026;SDS011;45891;53.006;6.512;2023-07-16T06:01:10;12.23;;;3.65;;
60026;SDS011;45891;53.006;6.512;2023-07-16T06:03:37;12.38;;;3.85;;
60026;SDS011;45891;53.006;6.512;2023-07-16T06:06:03;13.25;;;3.72;;
60026;SDS011;45891;53.006;6.512;2023-07-16T06:08:29;14.02;;;3.88;;
60026;SDS011;45891;53.006;6.512;2023-07-16T06:10:55;13.02;;;4.07;;
60026;SDS011;45891;53.006;6.512;2023-07-16T06:13:21;14.45;;;3.47;;
60026;SDS011;45891;53.006;6.512;2023-07-16T06:15:47;14.23;;;4.10;;
60026;SDS011;45891;53.006;6.512;2023-07-16T06:18:13;11.18;;;3.45;;
60026;SDS011;45891;53.006;6.512;2023-07-16T06:20:42;13.63;;;4.07;;
60026;SDS011;45891;53.006;6.512;2023-07-16T06:23:12;15.30;;;3.90;;
60026;SDS011;45891;53.006;6.512;2023-07-16T06:25:38;12.70;;;3.65;;
60026;SDS011;45891;53.006;6.512;2023-07-16T06:28:10;13.00;;;4.15;;
60026;SDS011;45891;53.006;6.512;2023-07-16T06:30:37;17.10;;;4.30;;
60026;SDS011;45891;53.006;6.512;2023-07-16T06:33:03;15.38;;;3.85;;
60026;SDS011;45891;53.006;6.512;2023-07-16T06:35:29;12.40;;;4.03;;
60026;SDS011;45891;53.006;6.512;2023-07-16T06:37:55;15.00;;;3.95;;
60026;SDS011;45891;53.006;6.512;2023-07-16T06:40:21;11.52;;;3.88;;
60026;SDS011;45891;53.006;6.512;2023-07-16T06:42:47;15.07;;;3.70;;
60026;SDS011;45891;53.006;6.512;2023-07-16T06:45:13;14.93;;;4.10;;
60026;SDS011;45891;53.006;6.512;2023-07-16T06:47:40;13.30;;;3.60;;
60026;SDS011;45891;53.006;6.512;2023-07-16T06:50:06;12.00;;;4.10;;
60026;SDS011;45891;53.006;6.512;2023-07-16T06:52:32;13.57;;;4.07;;
60026;SDS011;45891;53.006;6.512;2023-07-16T06:54:58;13.57;;;4.07;;
60026;SDS011;45891;53.006;6.512;2023-07-16T06:57:24;11.48;;;3.95;;
60026;SDS011;45891;53.006;6.512;2023-07-16T06:59:51;12.75;;;4.35;;
60026;SDS011;45891;53.006;6.512;2023-07-16T07:02:17;14.00;;;4.10;;
60026;SDS011;45891;53.006;6.512;2023-07-16T07:04:44;15.05;;;3.97;;
60026;SDS011;45891;53.006;6.512;2023-07-16T07:07:10;12.55;;;4.13;;
60026;SDS011;45891;53.006;6.512;2023-07-16T07:09:37;12.90;;;4.05;;
60026;SDS011;45891;53.006;6.512;2023-07-16T07:12:03;15.15;;;4.32;;
60026;SDS011;45891;53.006;6.512;2023-07-16T07:14:32;16.33;;;4.20;;
60026;SDS011;45891;53.006;6.512;2023-07-16T07:16:58;10.82;;;3.50;;
60026;SDS011;45891;53.006;6.512;2023-07-16T07:19:25;15.73;;;4.43;;
60026;SDS011;45891;53.006;6.512;2023-07-16T07:21:51;14.82;;;4.60;;
60026;SDS011;45891;53.006;6.512;2023-07-16T07:24:18;16.58;;;4.70;;
60026;SDS011;45891;53.006;6.512;2023-07-16T07:26:44;12.30;;;4.40;;
60026;SDS011;45891;53.006;6.512;2023-07-16T07:29:10;11.68;;;4.45;;
60026;SDS011;45891;53.006;6.512;2023-07-16T07:31:36;11.80;;;3.88;;
60026;SDS011;45891;53.006;6.512;2023-07-16T07:34:02;17.02;;;4.40;;
60026;SDS011;45891;53.006;6.512;2023-07-16T07:36:28;16.63;;;4.72;;
60026;SDS011;45891;53.006;6.512;2023-07-16T07:38:54;12.85;;;3.97;;
60026;SDS011;45891;53.006;6.512;2023-07-16T07:41:21;18.90;;;4.20;;
60026;SDS011;45891;53.006;6.512;2023-07-16T07:43:47;13.55;;;4.18;;
60026;SDS011;45891;53.006;6.512;2023-07-16T07:46:13;13.48;;;4.10;;
60026;SDS011;45891;53.006;6.512;2023-07-16T07:48:39;12.07;;;3.95;;
60026;SDS011;45891;53.006;6.512;2023-07-16T07:51:05;14.45;;;4.03;;
60026;SDS011;45891;53.006;6.512;2023-07-16T07:53:31;16.48;;;3.85;;
60026;SDS011;45891;53.006;6.512;2023-07-16T07:55:57;13.48;;;4.15;;
60026;SDS011;45891;53.006;6.512;2023-07-16T07:58:23;13.30;;;3.83;;
60026;SDS011;45891;53.006;6.512;2023-07-16T08:00:50;15.50;;;3.88;;
60026;SDS011;45891;53.006;6.512;2023-07-16T08:03:16;15.05;;;4.63;;
60026;SDS011;45891;53.006;6.512;2023-07-16T08:05:42;12.50;;;3.60;;
60026;SDS011;45891;53.006;6.512;2023-07-16T08:08:08;13.23;;;4.00;;
60026;SDS011;45891;53.006;6.512;2023-07-16T08:10:35;11.90;;;3.88;;
60026;SDS011;45891;53.006;6.512;2023-07-16T08:13:01;15.60;;;4.80;;
60026;SDS011;45891;53.006;6.512;2023-07-16T08:15:27;13.35;;;3.92;;
60026;SDS011;45891;53.006;6.512;2023-07-16T08:17:53;13.07;;;4.38;;
60026;SDS011;45891;53.006;6.512;2023-07-16T08:20:21;16.25;;;4.65;;
60026;SDS011;45891;53.006;6.512;2023-07-16T08:22:47;17.85;;;4.18;;
60026;SDS011;45891;53.006;6.512;2023-07-16T08:25:13;10.68;;;3.67;;
60026;SDS011;45891;53.006;6.512;2023-07-16T08:27:40;13.35;;;3.85;;
60026;SDS011;45891;53.006;6.512;2023-07-16T08:30:06;14.88;;;4.18;;
60026;SDS011;45891;53.006;6.512;2023-07-16T08:32:32;13.40;;;3.85;;
60026;SDS011;45891;53.006;6.512;2023-07-16T08:34:58;12.60;;;4.15;;
60026;SDS011;45891;53.006;6.512;2023-07-16T08:37:25;14.57;;;3.50;;
60026;SDS011;45891;53.006;6.512;2023-07-16T08:39:51;13.57;;;3.85;;
60026;SDS011;45891;53.006;6.512;2023-07-16T08:42:19;14.35;;;3.90;;
60026;SDS011;45891;53.006;6.512;2023-07-16T08:44:46;11.82;;;4.10;;
60026;SDS011;45891;53.006;6.512;2023-07-16T08:47:15;14.35;;;3.90;;
60026;SDS011;45891;53.006;6.512;2023-07-16T08:49:44;12.98;;;4.13;;
60026;SDS011;45891;53.006;6.512;2023-07-16T08:52:21;15.15;;;3.97;;
60026;SDS011;45891;53.006;6.512;2023-07-16T08:54:48;18.42;;;4.82;;
60026;SDS011;45891;53.006;6.512;2023-07-16T08:57:14;10.75;;;3.42;;
60026;SDS011;45891;53.006;6.512;2023-07-16T08:59:40;14.13;;;4.30;;
60026;SDS011;45891;53.006;6.512;2023-07-16T09:02:07;12.50;;;4.00;;
60026;SDS011;45891;53.006;6.512;2023-07-16T09:04:33;14.98;;;4.22;;
60026;SDS011;45891;53.006;6.512;2023-07-16T09:06:59;10.57;;;3.70;;
60026;SDS011;45891;53.006;6.512;2023-07-16T09:09:26;16.67;;;3.55;;
60026;SDS011;45891;53.006;6.512;2023-07-16T09:11:52;15.02;;;4.05;;
60026;SDS011;45891;53.006;6.512;2023-07-16T09:14:18;12.82;;;3.53;;
60026;SDS011;45891;53.006;6.512;2023-07-16T09:16:51;11.40;;;3.87;;
60026;SDS011;45891;53.006;6.512;2023-07-16T09:19:18;18.73;;;3.95;;
60026;SDS011;45891;53.006;6.512;2023-07-16T09:21:47;13.75;;;3.67;;
60026;SDS011;45891;53.006;6.512;2023-07-16T09:24:14;14.77;;;3.70;;
60026;SDS011;45891;53.006;6.512;2023-07-16T09:26:53;14.57;;;4.00;;
60026;SDS011;45891;53.006;6.512;2023-07-16T09:29:24;12.75;;;4.00;;
60026;SDS011;45891;53.006;6.512;2023-07-16T09:31:57;15.07;;;3.92;;
60026;SDS011;45891;53.006;6.512;2023-07-16T09:34:28;13.05;;;4.28;;
60026;SDS011;45891;53.006;6.512;2023-07-16T09:36:59;14.20;;;4.10;;
60026;SDS011;45891;53.006;6.512;2023-07-16T09:39:26;9.80;;;3.78;;
60026;SDS011;45891;53.006;6.512;2023-07-16T09:41:53;11.75;;;3.80;;
60026;SDS011;45891;53.006;6.512;2023-07-16T09:44:22;12.30;;;3.85;;
60026;SDS011;45891;53.006;6.512;2023-07-16T09:46:48;12.77;;;3.80;;
60026;SDS011;45891;53.006;6.512;2023-07-16T09:49:15;11.80;;;3.50;;
60026;SDS011;45891;53.006;6.512;2023-07-16T09:51:42;10.02;;;3.40;;
60026;SDS011;45891;53.006;6.512;2023-07-16T09:54:12;15.05;;;4.05;;
60026;SDS011;45891;53.006;6.512;2023-07-16T09:56:49;16.38;;;4.65;;
60026;SDS011;45891;53.006;6.512;2023-07-16T09:59:20;16.30;;;4.07;;
60026;SDS011;45891;53.006;6.512;2023-07-16T10:01:49;11.87;;;3.80;;
60026;SDS011;45891;53.006;6.512;2023-07-16T10:04:17;10.73;;;3.70;;
60026;SDS011;45891;53.006;6.512;2023-07-16T10:06:51;12.20;;;3.75;;
60026;SDS011;45891;53.006;6.512;2023-07-16T10:09:38;16.98;;;4.28;;
60026;SDS011;45891;53.006;6.512;2023-07-16T10:12:16;16.13;;;4.00;;
60026;SDS011;45891;53.006;6.512;2023-07-16T10:14:47;12.38;;;3.90;;
60026;SDS011;45891;53.006;6.512;2023-07-16T10:17:24;17.70;;;4.68;;
60026;SDS011;45891;53.006;6.512;2023-07-16T10:22:46;13.00;;;4.45;;
60026;SDS011;45891;53.006;6.512;2023-07-16T10:27:48;12.15;;;4.20;;
60026;SDS011;45891;53.006;6.512;2023-07-16T10:30:16;14.32;;;4.28;;
60026;SDS011;45891;53.006;6.512;2023-07-16T10:32:42;16.10;;;4.20;;
60026;SDS011;45891;53.006;6.512;2023-07-16T10:35:09;15.57;;;3.95;;
60026;SDS011;45891;53.006;6.512;2023-07-16T10:37:36;13.15;;;3.83;;
60026;SDS011;45891;53.006;6.512;2023-07-16T10:40:04;14.65;;;3.70;;
60026;SDS011;45891;53.006;6.512;2023-07-16T10:42:35;12.10;;;3.90;;
60026;SDS011;45891;53.006;6.512;2023-07-16T10:45:02;11.52;;;3.45;;
60026;SDS011;45891;53.006;6.512;2023-07-16T10:47:31;14.15;;;3.80;;
60026;SDS011;45891;53.006;6.512;2023-07-16T10:49:57;11.70;;;3.50;;
60026;SDS011;45891;53.006;6.512;2023-07-16T10:52:24;9.55;;;3.33;;
60026;SDS011;45891;53.006;6.512;2023-07-16T10:54:51;11.80;;;3.88;;
60026;SDS011;45891;53.006;6.512;2023-07-16T10:57:26;11.57;;;3.95;;
60026;SDS011;45891;53.006;6.512;2023-07-16T10:59:54;15.10;;;3.90;;
60026;SDS011;45891;53.006;6.512;2023-07-16T11:02:21;10.60;;;3.58;;
60026;SDS011;45891;53.006;6.512;2023-07-16T11:04:49;15.73;;;3.80;;
60026;SDS011;45891;53.006;6.512;2023-07-16T11:07:16;13.18;;;3.60;;
60026;SDS011;45891;53.006;6.512;2023-07-16T11:09:42;12.20;;;3.40;;
60026;SDS011;45891;53.006;6.512;2023-07-16T11:12:17;12.15;;;3.30;;
60026;SDS011;45891;53.006;6.512;2023-07-16T11:14:45;12.05;;;3.08;;
60026;SDS011;45891;53.006;6.512;2023-07-16T11:17:13;13.35;;;3.58;;
60026;SDS011;45891;53.006;6.512;2023-07-16T11:19:40;11.18;;;3.50;;
60026;SDS011;45891;53.006;6.512;2023-07-16T11:22:10;12.82;;;3.75;;
60026;SDS011;45891;53.006;6.512;2023-07-16T11:24:40;12.23;;;3.10;;
60026;SDS011;45891;53.006;6.512;2023-07-16T11:27:26;11.80;;;3.63;;
60026;SDS011;45891;53.006;6.512;2023-07-16T11:29:56;10.73;;;3.10;;
60026;SDS011;45891;53.006;6.512;2023-07-16T11:32:27;11.52;;;3.20;;
60026;SDS011;45891;53.006;6.512;2023-07-16T11:35:00;11.27;;;3.70;;
60026;SDS011;45891;53.006;6.512;2023-07-16T11:37:28;12.70;;;4.03;;
60026;SDS011;45891;53.006;6.512;2023-07-16T11:39:57;15.75;;;4.40;;
60026;SDS011;45891;53.006;6.512;2023-07-16T11:42:27;13.25;;;4.00;;
60026;SDS011;45891;53.006;6.512;2023-07-16T11:44:53;12.23;;;4.33;;
60026;SDS011;45891;53.006;6.512;2023-07-16T11:47:21;13.02;;;4.00;;
60026;SDS011;45891;53.006;6.512;2023-07-16T11:49:48;13.43;;;4.15;;
60026;SDS011;45891;53.006;6.512;2023-07-16T11:52:15;14.35;;;4.00;;
60026;SDS011;45891;53.006;6.512;2023-07-16T11:54:45;11.48;;;4.47;;
60026;SDS011;45891;53.006;6.512;2023-07-16T11:57:11;13.55;;;4.18;;
60026;SDS011;45891;53.006;6.512;2023-07-16T11:59:37;13.02;;;4.30;;
60026;SDS011;45891;53.006;6.512;2023-07-16T12:02:04;14.13;;;4.30;;
60026;SDS011;45891;53.006;6.512;2023-07-16T12:04:30;12.05;;;4.32;;
60026;SDS011;45891;53.006;6.512;2023-07-16T12:06:56;13.48;;;4.32;;
60026;SDS011;45891;53.006;6.512;2023-07-16T12:09:22;12.25;;;4.40;;
60026;SDS011;45891;53.006;6.512;2023-07-16T12:11:48;18.23;;;4.40;;
60026;SDS011;45891;53.006;6.512;2023-07-16T12:14:14;10.68;;;3.97;;
60026;SDS011;45891;53.006;6.512;2023-07-16T12:16:41;11.13;;;3.92;;
60026;SDS011;45891;53.006;6.512;2023-07-16T12:19:08;12.63;;;4.13;;
60026;SDS011;45891;53.006;6.512;2023-07-16T12:21:35;16.00;;;4.13;;
60026;SDS011;45891;53.006;6.512;2023-07-16T12:24:02;10.95;;;3.60;;
60026;SDS011;45891;53.006;6.512;2023-07-16T12:26:28;10.95;;;3.50;;
60026;SDS011;45891;53.006;6.512;2023-07-16T12:28:54;11.85;;;3.78;;
60026;SDS011;45891;53.006;6.512;2023-07-16T12:31:20;14.95;;;4.53;;
60026;SDS011;45891;53.006;6.512;2023-07-16T12:33:47;11.43;;;4.15;;
60026;SDS011;45891;53.006;6.512;2023-07-16T12:36:14;11.65;;;4.72;;
60026;SDS011;45891;53.006;6.512;2023-07-16T12:38:40;12.32;;;5.28;;
60026;SDS011;45891;53.006;6.512;2023-07-16T12:41:07;11.13;;;4.63;;
60026;SDS011;45891;53.006;6.512;2023-07-16T12:43:33;13.80;;;5.35;;
60026;SDS011;45891;53.006;6.512;2023-07-16T12:46:00;12.30;;;5.00;;
60026;SDS011;45891;53.006;6.512;2023-07-16T12:48:28;15.40;;;4.63;;
60026;SDS011;45891;53.006;6.512;2023-07-16T12:50:55;12.43;;;5.00;;
60026;SDS011;45891;53.006;6.512;2023-07-16T12:53:22;10.82;;;4.60;;
60026;SDS011;45891;53.006;6.512;2023-07-16T12:55:49;17.17;;;4.90;;
60026;SDS011;45891;53.006;6.512;2023-07-16T12:58:15;13.55;;;4.50;;
60026;SDS011;45891;53.006;6.512;2023-07-16T13:00:41;14.73;;;4.88;;
60026;SDS011;45891;53.006;6.512;2023-07-16T13:03:08;12.85;;;4.55;;
60026;SDS011;45891;53.006;6.512;2023-07-16T13:05:40;14.07;;;4.60;;
60026;SDS011;45891;53.006;6.512;2023-07-16T13:08:06;11.90;;;4.60;;
60026;SDS011;45891;53.006;6.512;2023-07-16T13:10:33;14.52;;;4.28;;
60026;SDS011;45891;53.006;6.512;2023-07-16T13:12:59;10.43;;;4.00;;
60026;SDS011;45891;53.006;6.512;2023-07-16T13:15:25;13.50;;;4.10;;
60026;SDS011;45891;53.006;6.512;2023-07-16T13:17:52;13.77;;;4.30;;
60026;SDS011;45891;53.006;6.512;2023-07-16T13:20:19;14.55;;;4.45;;
60026;SDS011;45891;53.006;6.512;2023-07-16T13:22:46;12.80;;;3.80;;
60026;SDS011;45891;53.006;6.512;2023-07-16T13:25:12;11.98;;;3.72;;
60026;SDS011;45891;53.006;6.512;2023-07-16T13:27:38;12.32;;;3.80;;
60026;SDS011;45891;53.006;6.512;2023-07-16T13:30:05;11.13;;;4.32;;
60026;SDS011;45891;53.006;6.512;2023-07-16T13:32:32;11.93;;;4.47;;
60026;SDS011;45891;53.006;6.512;2023-07-16T13:34:59;13.48;;;4.57;;
60026;SDS011;45891;53.006;6.512;2023-07-16T13:37:25;10.88;;;4.20;;
60026;SDS011;45891;53.006;6.512;2023-07-16T13:39:51;12.05;;;4.10;;
60026;SDS011;45891;53.006;6.512;2023-07-16T13:42:17;9.88;;;3.40;;
60026;SDS011;45891;53.006;6.512;2023-07-16T13:44:43;9.68;;;3.25;;
60026;SDS011;45891;53.006;6.512;2023-07-16T13:47:09;10.25;;;3.20;;
60026;SDS011;45891;53.006;6.512;2023-07-16T13:49:36;13.63;;;3.60;;
60026;SDS011;45891;53.006;6.512;2023-07-16T13:52:02;12.32;;;3.22;;
60026;SDS011;45891;53.006;6.512;2023-07-16T13:54:28;13.95;;;3.08;;
60026;SDS011;45891;53.006;6.512;2023-07-16T13:56:54;15.00;;;3.33;;
60026;SDS011;45891;53.006;6.512;2023-07-16T13:59:20;12.68;;;3.55;;
60026;SDS011;45891;53.006;6.512;2023-07-16T14:01:46;12.30;;;3.20;;
60026;SDS011;45891;53.006;6.512;2023-07-16T14:04:13;11.88;;;3.25;;
60026;SDS011;45891;53.006;6.512;2023-07-16T14:06:39;11.50;;;3.60;;
60026;SDS011;45891;53.006;6.512;2023-07-16T14:09:05;11.55;;;3.20;;
60026;SDS011;45891;53.006;6.512;2023-07-16T14:11:31;12.27;;;2.92;;
60026;SDS011;45891;53.006;6.512;2023-07-16T14:13:57;13.45;;;2.78;;
60026;SDS011;45891;53.006;6.512;2023-07-16T14:16:23;9.48;;;2.10;;
60026;SDS011;45891;53.006;6.512;2023-07-16T14:18:50;11.77;;;2.30;;
60026;SDS011;45891;53.006;6.512;2023-07-16T14:21:18;11.25;;;2.33;;
60026;SDS011;45891;53.006;6.512;2023-07-16T14:23:45;12.65;;;2.78;;
60026;SDS011;45891;53.006;6.512;2023-07-16T14:26:12;15.93;;;2.75;;
60026;SDS011;45891;53.006;6.512;2023-07-16T14:28:38;12.95;;;2.50;;
60026;SDS011;45891;53.006;6.512;2023-07-16T14:31:04;12.98;;;2.70;;
60026;SDS011;45891;53.006;6.512;2023-07-16T14:33:30;14.88;;;2.60;;
60026;SDS011;45891;53.006;6.512;2023-07-16T14:35:57;16.35;;;2.47;;
60026;SDS011;45891;53.006;6.512;2023-07-16T14:38:23;13.18;;;1.73;;
60026;SDS011;45891;53.006;6.512;2023-07-16T14:40:49;15.75;;;2.30;;
60026;SDS011;45891;53.006;6.512;2023-07-16T14:43:17;14.50;;;2.45;;
60026;SDS011;45891;53.006;6.512;2023-07-16T14:45:44;10.95;;;2.22;;